Time;durP1;ratioP1;P1;durP2;ratioP2;P2;SDS_P1;SDS_P2;PMS_P1;PMS_P2;Temp;Humidity;BMP_temperature;BMP_pressure;BME280_temperature;BME280_humidity;BME280_pressure;Samples;Min_cycle;Max_cycle;Signal;HPM_P1;HPM_P2
2023/06/05 00:01:09;;;;;;;8.30;3.00;;;;;;;;;;6121121;23;20450;-92
2023/06/05 00:03:37;;;;;;;6.10;2.97;;;;;;;;;;6097018;23;20022;-91
2023/06/05 00:06:03;;;;;;;3.85;2.80;;;;;;;;;;6100047;23;20022;-90
2023/06/05 00:08:29;;;;;;;2.63;2.42;;;;;;;;;;6122963;23;20021;-91
2023/06/05 00:10:55;;;;;;;3.50;2.85;;;;;;;;;;6122847;23;20070;-91
2023/06/05 00:13:21;;;;;;;4.55;2.60;;;;;;;;;;6119674;23;20018;-90
2023/06/05 00:15:47;;;;;;;4.00;2.90;;;;;;;;;;6121971;23;20417;-92
2023/06/05 00:18:14;;;;;;;5.70;2.80;;;;;;;;;;6119589;23;20010;-91
2023/06/05 00:20:40;;;;;;;3.88;2.72;;;;;;;;;;6118197;23;20033;-91
2023/06/05 00:23:06;;;;;;;4.10;2.72;;;;;;;;;;6117820;23;20026;-91
2023/06/05 00:25:32;;;;;;;5.88;4.03;;;;;;;;;;6093584;23;20430;-91
2023/06/05 00:27:58;;;;;;;3.72;2.65;;;;;;;;;;6093335;23;20021;-91
2023/06/05 00:30:24;;;;;;;3.58;2.75;;;;;;;;;;6118853;23;20018;-90
2023/06/05 00:32:50;;;;;;;4.90;2.72;;;;;;;;;;6118594;23;20061;-91
2023/06/05 00:35:16;;;;;;;5.05;2.85;;;;;;;;;;6118935;23;20017;-92
2023/06/05 00:37:46;;;;;;;4.10;2.83;;;;;;;;;;6119965;23;20025;-91
2023/06/05 00:40:13;;;;;;;6.65;3.40;;;;;;;;;;6119511;23;20013;-91
2023/06/05 00:42:39;;;;;;;4.22;3.38;;;;;;;;;;6093121;23;20399;-89
2023/06/05 00:45:05;;;;;;;4.28;2.65;;;;;;;;;;6093947;23;20443;-90
2023/06/05 00:47:32;;;;;;;6.53;3.20;;;;;;;;;;6093723;23;20018;-91
2023/06/05 00:49:59;;;;;;;4.80;3.53;;;;;;;;;;6119196;23;20018;-92
2023/06/05 00:52:25;;;;;;;4.28;3.30;;;;;;;;;;6119137;23;20385;-90
2023/06/05 00:54:51;;;;;;;3.40;2.80;;;;;;;;;;6119738;23;20026;-91
2023/06/05 00:57:18;;;;;;;5.53;3.40;;;;;;;;;;6093627;23;20013;-90
2023/06/05 00:59:44;;;;;;;4.45;3.22;;;;;;;;;;6117717;23;20042;-91
2023/06/05 01:02:12;;;;;;;4.53;3.10;;;;;;;;;;6118714;23;20460;-92
2023/06/05 01:04:43;;;;;;;6.20;3.33;;;;;;;;;;6117665;23;20156;-90
2023/06/05 01:07:10;;;;;;;3.70;2.75;;;;;;;;;;6117721;23;20041;-90
2023/06/05 01:09:37;;;;;;;4.57;3.13;;;;;;;;;;6117848;23;20018;-90
2023/06/05 01:12:11;;;;;;;5.25;3.50;;;;;;;;;;6120399;23;20024;-92
2023/06/05 01:14:40;;;;;;;5.53;3.30;;;;;;;;;;6122123;23;20073;-92
2023/06/05 01:17:08;;;;;;;4.65;3.22;;;;;;;;;;6122421;23;20375;-93
2023/06/05 01:19:36;;;;;;;6.40;3.33;;;;;;;;;;6119545;23;20018;-91
2023/06/05 01:22:02;;;;;;;4.30;3.15;;;;;;;;;;6119193;23;20033;-93
2023/06/05 01:24:28;;;;;;;6.07;3.28;;;;;;;;;;6094844;23;20018;-92
2023/06/05 01:27:04;;;;;;;5.72;2.80;;;;;;;;;;6122315;23;20119;-91
2023/06/05 01:29:30;;;;;;;4.43;3.03;;;;;;;;;;6095105;23;20020;-90
2023/06/05 01:31:59;;;;;;;7.75;3.20;;;;;;;;;;6121930;23;20073;-91
2023/06/05 01:34:26;;;;;;;5.35;3.47;;;;;;;;;;6095007;23;20065;-92
2023/06/05 01:36:53;;;;;;;4.57;3.15;;;;;;;;;;6120778;23;20029;-92
2023/06/05 01:39:19;;;;;;;5.97;3.35;;;;;;;;;;6122529;23;20332;-91
2023/06/05 01:41:46;;;;;;;3.83;3.30;;;;;;;;;;6094913;23;20084;-91
2023/06/05 01:44:15;;;;;;;6.43;3.97;;;;;;;;;;6118955;23;20014;-91
2023/06/05 01:46:42;;;;;;;4.57;3.17;;;;;;;;;;6120870;23;20026;-91
2023/06/05 01:49:08;;;;;;;7.95;3.47;;;;;;;;;;6120543;23;20014;-90
2023/06/05 01:51:35;;;;;;;5.28;3.38;;;;;;;;;;6118464;23;20010;-90
2023/06/05 01:54:01;;;;;;;4.00;2.72;;;;;;;;;;6119903;23;20018;-90
2023/06/05 01:56:30;;;;;;;4.70;3.13;;;;;;;;;;6093752;23;20022;-91
2023/06/05 01:58:56;;;;;;;4.28;3.22;;;;;;;;;;6121082;23;20152;-89
2023/06/05 02:01:22;;;;;;;3.58;3.08;;;;;;;;;;6120055;23;20045;-90
2023/06/05 02:03:49;;;;;;;5.03;3.70;;;;;;;;;;6120516;23;20022;-90
2023/06/05 02:06:16;;;;;;;4.78;3.53;;;;;;;;;;6094963;23;20021;-90
2023/06/05 02:08:42;;;;;;;9.20;3.85;;;;;;;;;;6121095;23;20033;-89
2023/06/05 02:11:11;;;;;;;5.20;3.47;;;;;;;;;;6118937;23;20447;-90
2023/06/05 02:13:40;;;;;;;5.00;3.65;;;;;;;;;;6117909;23;20379;-90
2023/06/05 02:16:09;;;;;;;4.90;3.45;;;;;;;;;;6118569;23;20069;-90
2023/06/05 02:18:37;;;;;;;7.88;3.83;;;;;;;;;;6119805;23;20085;-90
2023/06/05 02:21:03;;;;;;;7.47;4.25;;;;;;;;;;6095190;23;20352;-90
2023/06/05 02:23:29;;;;;;;4.55;3.38;;;;;;;;;;6118452;23;20021;-90
2023/06/05 02:25:56;;;;;;;4.78;3.72;;;;;;;;;;6119834;23;20029;-91
2023/06/05 02:28:22;;;;;;;5.47;3.83;;;;;;;;;;6120793;23;20025;-89
2023/06/05 02:30:48;;;;;;;8.32;4.00;;;;;;;;;;6117635;23;20018;-90
2023/06/05 02:33:15;;;;;;;5.75;4.18;;;;;;;;;;6118323;23;20014;-90
2023/06/05 02:35:41;;;;;;;6.90;3.80;;;;;;;;;;6093597;23;20069;-90
2023/06/05 02:38:12;;;;;;;8.13;4.28;;;;;;;;;;6118011;23;20349;-90
2023/06/05 02:40:38;;;;;;;6.28;3.88;;;;;;;;;;6093470;23;20020;-90
2023/06/05 02:43:05;;;;;;;4.95;3.60;;;;;;;;;;6118674;23;20018;-90
2023/06/05 02:45:31;;;;;;;7.80;3.88;;;;;;;;;;6093724;23;20018;-90
2023/06/05 02:47:57;;;;;;;6.70;3.70;;;;;;;;;;6119098;23;20448;-90
2023/06/05 02:50:23;;;;;;;7.28;4.40;;;;;;;;;;6118356;23;20024;-90
2023/06/05 02:52:49;;;;;;;4.97;3.35;;;;;;;;;;6121012;23;20069;-91
2023/06/05 02:55:17;;;;;;;6.57;4.10;;;;;;;;;;6119836;23;20464;-89
2023/06/05 02:57:44;;;;;;;6.07;3.63;;;;;;;;;;6118280;23;20020;-89
2023/06/05 03:00:16;;;;;;;7.13;4.32;;;;;;;;;;6118928;23;20021;-90
2023/06/05 03:02:48;;;;;;;9.63;3.97;;;;;;;;;;6118077;23;20022;-90
2023/06/05 03:05:14;;;;;;;9.48;3.85;;;;;;;;;;6118805;23;20021;-90
2023/06/05 03:07:40;;;;;;;6.68;3.92;;;;;;;;;;6117954;23;20022;-89
2023/06/05 03:10:07;;;;;;;7.85;4.32;;;;;;;;;;6119440;23;20014;-90
2023/06/05 03:12:33;;;;;;;8.57;4.50;;;;;;;;;;6120248;23;20458;-89
2023/06/05 03:15:00;;;;;;;6.30;4.43;;;;;;;;;;6119960;23;20010;-89
2023/06/05 03:17:27;;;;;;;8.88;3.97;;;;;;;;;;6119367;23;20014;-91
2023/06/05 03:19:53;;;;;;;5.30;3.85;;;;;;;;;;6124487;23;20075;-90
2023/06/05 03:22:19;;;;;;;7.40;4.22;;;;;;;;;;6126409;23;20018;-90
2023/06/05 03:24:46;;;;;;;7.38;4.10;;;;;;;;;;6123221;23;20029;-90
2023/06/05 03:27:12;;;;;;;8.52;3.92;;;;;;;;;;6121341;23;20025;-90
2023/06/05 03:29:38;;;;;;;7.10;3.90;;;;;;;;;;6094020;23;20022;-90
2023/06/05 03:32:04;;;;;;;8.75;3.97;;;;;;;;;;6123375;23;20024;-90
2023/06/05 03:34:32;;;;;;;4.53;3.03;;;;;;;;;;6120869;23;20022;-89
2023/06/05 03:36:58;;;;;;;5.40;3.63;;;;;;;;;;6100072;23;20088;-89
2023/06/05 03:39:25;;;;;;;5.57;3.17;;;;;;;;;;6124499;23;20534;-89
2023/06/05 03:41:51;;;;;;;5.70;3.65;;;;;;;;;;6123950;23;20018;-88
2023/06/05 03:44:17;;;;;;;5.43;3.35;;;;;;;;;;6122417;23;20088;-89
2023/06/05 03:46:44;;;;;;;5.70;4.15;;;;;;;;;;6123653;23;20018;-89
2023/06/05 03:49:10;;;;;;;6.15;4.30;;;;;;;;;;6122192;23;20010;-88
2023/06/05 03:51:36;;;;;;;8.70;5.20;;;;;;;;;;6117401;23;20040;-89
2023/06/05 03:54:03;;;;;;;7.80;4.03;;;;;;;;;;6118813;23;20017;-89
2023/06/05 03:56:34;;;;;;;5.97;3.90;;;;;;;;;;6117519;23;20104;-89
2023/06/05 03:59:18;;;;;;;5.90;3.97;;;;;;;;;;6092786;23;20088;-89
2023/06/05 04:01:45;;;;;;;4.90;3.63;;;;;;;;;;6115695;23;20017;-89
2023/06/05 04:04:11;;;;;;;6.60;4.03;;;;;;;;;;6117262;23;20014;-89
2023/06/05 04:06:37;;;;;;;7.28;3.88;;;;;;;;;;6118639;23;20396;-89
2023/06/05 04:09:11;;;;;;;5.13;3.78;;;;;;;;;;6093497;23;20091;-85
2023/06/05 04:11:38;;;;;;;5.43;3.10;;;;;;;;;;6116224;23;20626;-83
2023/06/05 04:14:04;;;;;;;5.45;3.78;;;;;;;;;;6116673;23;20018;-82
2023/06/05 04:16:30;;;;;;;6.30;3.53;;;;;;;;;;6115348;23;20021;-87
2023/06/05 04:18:56;;;;;;;6.97;3.25;;;;;;;;;;6116987;23;20014;-88
2023/06/05 04:21:22;;;;;;;4.50;3.15;;;;;;;;;;6118761;23;20018;-88
2023/06/05 04:23:48;;;;;;;6.50;3.83;;;;;;;;;;6116851;23;20029;-90
2023/06/05 04:26:17;;;;;;;5.97;3.88;;;;;;;;;;6116826;23;20017;-91
2023/06/05 04:28:43;;;;;;;5.25;3.78;;;;;;;;;;6117937;23;20434;-90
2023/06/05 04:31:09;;;;;;;7.47;4.03;;;;;;;;;;6118195;23;20013;-90
2023/06/05 04:33:35;;;;;;;5.85;3.30;;;;;;;;;;6092167;23;20013;-92
2023/06/05 04:36:02;;;;;;;5.68;3.67;;;;;;;;;;6093559;23;20018;-92
2023/06/05 04:38:28;;;;;;;5.82;3.42;;;;;;;;;;6118996;23;20022;-90
2023/06/05 04:40:54;;;;;;;7.35;4.18;;;;;;;;;;6093362;23;20046;-92
2023/06/05 04:43:22;;;;;;;7.32;5.07;;;;;;;;;;6116964;23;20329;-90
2023/06/05 04:45:48;;;;;;;7.53;3.78;;;;;;;;;;6118070;23;20017;-90
2023/06/05 04:48:14;;;;;;;5.78;4.07;;;;;;;;;;6116819;23;20104;-89
2023/06/05 04:50:41;;;;;;;6.90;4.43;;;;;;;;;;6118412;23;20312;-87
2023/06/05 04:53:08;;;;;;;6.40;3.92;;;;;;;;;;6118800;23;20093;-85
2023/06/05 04:55:34;;;;;;;5.38;3.45;;;;;;;;;;6115728;23;20037;-86
2023/06/05 04:58:00;;;;;;;6.65;3.53;;;;;;;;;;6118561;23;20086;-89
2023/06/05 05:00:27;;;;;;;8.57;3.70;;;;;;;;;;6117193;23;20018;-87
2023/06/05 05:02:53;;;;;;;6.47;4.13;;;;;;;;;;6119348;23;20025;-87
2023/06/05 05:05:20;;;;;;;7.32;4.18;;;;;;;;;;6117563;23;20085;-86
2023/06/05 05:07:46;;;;;;;7.10;4.22;;;;;;;;;;6116117;23;20018;-85
2023/06/05 05:10:12;;;;;;;4.55;3.17;;;;;;;;;;6117534;23;20295;-86
2023/06/05 05:12:38;;;;;;;4.55;3.50;;;;;;;;;;6117988;23;20463;-87
2023/06/05 05:15:06;;;;;;;3.67;2.80;;;;;;;;;;6118510;23;20058;-85
2023/06/05 05:17:32;;;;;;;5.47;3.47;;;;;;;;;;6114216;23;20018;-86
2023/06/05 05:19:58;;;;;;;4.55;3.38;;;;;;;;;;6119601;23;20036;-87
2023/06/05 05:22:25;;;;;;;4.65;2.92;;;;;;;;;;6116791;23;20026;-86
2023/06/05 05:24:51;;;;;;;4.75;3.03;;;;;;;;;;6118195;23;20021;-86
2023/06/05 05:27:17;;;;;;;3.47;2.60;;;;;;;;;;6116523;23;20148;-85
2023/06/05 05:29:43;;;;;;;3.97;2.50;;;;;;;;;;6118743;23;20049;-86
2023/06/05 05:32:10;;;;;;;3.88;2.53;;;;;;;;;;6092505;23;20021;-85
2023/06/05 05:34:37;;;;;;;4.32;2.67;;;;;;;;;;6118427;23;20076;-84
2023/06/05 05:37:03;;;;;;;4.10;2.85;;;;;;;;;;6092647;23;20022;-86
2023/06/05 05:39:29;;;;;;;5.47;3.10;;;;;;;;;;6092292;23;20014;-87
2023/06/05 05:41:55;;;;;;;3.83;2.83;;;;;;;;;;6118817;23;20040;-89
2023/06/05 05:44:21;;;;;;;5.07;3.47;;;;;;;;;;6118224;23;20347;-86
2023/06/05 05:46:47;;;;;;;4.20;3.00;;;;;;;;;;6116682;23;20081;-85
2023/06/05 05:49:13;;;;;;;4.45;3.28;;;;;;;;;;6116626;23;20474;-84
2023/06/05 05:51:40;;;;;;;4.57;2.97;;;;;;;;;;6117835;23;20022;-85
2023/06/05 05:54:06;;;;;;;3.83;2.97;;;;;;;;;;6117631;23;20025;-86
2023/06/05 05:56:34;;;;;;;5.50;3.25;;;;;;;;;;6116076;23;20093;-86
2023/06/05 05:59:00;;;;;;;4.65;3.33;;;;;;;;;;6118106;23;20010;-85
2023/06/05 06:01:27;;;;;;;3.67;3.25;;;;;;;;;;6118026;23;20014;-86
2023/06/05 06:03:54;;;;;;;4.57;3.28;;;;;;;;;;6117396;23;20018;-83
2023/06/05 06:06:20;;;;;;;4.82;3.42;;;;;;;;;;6115728;23;20110;-85
2023/06/05 06:08:46;;;;;;;4.20;2.65;;;;;;;;;;6118918;23;20093;-85
2023/06/05 06:11:12;;;;;;;4.35;2.78;;;;;;;;;;6120401;23;20025;-84
2023/06/05 06:13:38;;;;;;;5.80;3.58;;;;;;;;;;6120955;23;20396;-86
2023/06/05 06:16:05;;;;;;;3.97;3.40;;;;;;;;;;6120162;23;20010;-85
2023/06/05 06:18:31;;;;;;;5.45;4.15;;;;;;;;;;6117606;23;20025;-82
2023/06/05 06:20:58;;;;;;;6.38;4.00;;;;;;;;;;6121316;23;20021;-84
2023/06/05 06:23:24;;;;;;;4.20;3.05;;;;;;;;;;6116571;23;20022;-89
2023/06/05 06:25:51;;;;;;;7.43;3.55;;;;;;;;;;6114642;23;20018;-83
2023/06/05 06:28:19;;;;;;;5.45;3.45;;;;;;;;;;6118210;23;20027;-86
2023/06/05 06:30:45;;;;;;;7.18;3.83;;;;;;;;;;6118123;23;20020;-85
2023/06/05 06:33:11;;;;;;;5.65;3.42;;;;;;;;;;6120579;23;20925;-85
2023/06/05 06:35:37;;;;;;;4.78;2.95;;;;;;;;;;6116527;23;20065;-82
2023/06/05 06:38:03;;;;;;;4.15;3.50;;;;;;;;;;6117054;23;20054;-81
2023/06/05 06:40:29;;;;;;;3.92;2.75;;;;;;;;;;6116603;23;20022;-81
2023/06/05 06:42:55;;;;;;;4.22;3.50;;;;;;;;;;6120905;23;20338;-84
2023/06/05 06:45:21;;;;;;;3.65;2.90;;;;;;;;;;6118579;23;20026;-85
2023/06/05 06:47:47;;;;;;;3.70;2.58;;;;;;;;;;6124387;23;20395;-85
2023/06/05 06:50:14;;;;;;;4.28;2.75;;;;;;;;;;6121921;23;20018;-89
2023/06/05 06:52:40;;;;;;;3.03;2.53;;;;;;;;;;6119249;23;20060;-91
2023/06/05 06:55:07;;;;;;;4.25;2.50;;;;;;;;;;6118261;23;20026;-87
2023/06/05 06:57:33;;;;;;;3.70;2.75;;;;;;;;;;6118824;23;20317;-89
2023/06/05 06:59:59;;;;;;;2.80;2.50;;;;;;;;;;6119020;23;20014;-88
2023/06/05 07:02:25;;;;;;;3.05;2.10;;;;;;;;;;6120798;23;20018;-85
2023/06/05 07:04:53;;;;;;;3.50;2.22;;;;;;;;;;6124297;23;20025;-89
2023/06/05 07:07:21;;;;;;;2.63;1.95;;;;;;;;;;6127133;23;20014;-86
2023/06/05 07:09:49;;;;;;;2.33;2.03;;;;;;;;;;6120485;23;20021;-84
2023/06/05 07:12:17;;;;;;;2.88;2.10;;;;;;;;;;6117654;23;20383;-84
2023/06/05 07:14:43;;;;;;;3.20;2.00;;;;;;;;;;6119573;23;20122;-88
2023/06/05 07:17:09;;;;;;;1.65;1.42;;;;;;;;;;6118190;23;20071;-83
2023/06/05 07:19:36;;;;;;;1.75;1.55;;;;;;;;;;6118707;23;20328;-87
2023/06/05 07:22:05;;;;;;;1.88;1.52;;;;;;;;;;6115887;23;20029;-87
2023/06/05 07:24:32;;;;;;;2.72;1.60;;;;;;;;;;6117779;23;20026;-92
2023/06/05 07:27:00;;;;;;;2.13;1.42;;;;;;;;;;6092506;23;20014;-84
2023/06/05 07:29:26;;;;;;;2.40;1.55;;;;;;;;;;6117272;23;20077;-85
2023/06/05 07:31:53;;;;;;;2.60;2.05;;;;;;;;;;6115956;23;20060;-85
2023/06/05 07:34:20;;;;;;;3.00;2.03;;;;;;;;;;6115013;23;20022;-84
2023/06/05 07:36:46;;;;;;;2.35;1.90;;;;;;;;;;6118098;23;20024;-82
2023/06/05 07:39:13;;;;;;;3.05;1.90;;;;;;;;;;6117659;23;20014;-82
2023/06/05 07:41:42;;;;;;;2.95;1.70;;;;;;;;;;6115949;23;20445;-82
2023/06/05 07:44:15;;;;;;;2.20;1.40;;;;;;;;;;6118308;23;20029;-81
2023/06/05 07:46:41;;;;;;;2.65;1.55;;;;;;;;;;6117369;23;20080;-86
2023/06/05 07:49:08;;;;;;;1.63;1.15;;;;;;;;;;6118891;23;20076;-87
2023/06/05 07:51:37;;;;;;;2.22;1.77;;;;;;;;;;6116534;23;20021;-83
2023/06/05 07:54:06;;;;;;;1.80;1.70;;;;;;;;;;6117290;23;20088;-82
2023/06/05 07:56:33;;;;;;;2.35;1.52;;;;;;;;;;6115500;23;20014;-82
2023/06/05 07:59:00;;;;;;;2.30;1.90;;;;;;;;;;6116954;23;20344;-84
2023/06/05 08:01:27;;;;;;;1.67;1.20;;;;;;;;;;6117488;23;20014;-86
2023/06/05 08:03:53;;;;;;;2.42;1.58;;;;;;;;;;6116621;23;20388;-86
2023/06/05 08:06:19;;;;;;;2.28;1.40;;;;;;;;;;6117340;23;20290;-83
2023/06/05 08:08:45;;;;;;;3.28;1.55;;;;;;;;;;6120459;23;20019;-87
2023/06/05 08:11:11;;;;;;;2.22;1.65;;;;;;;;;;6121255;23;20531;-84
2023/06/05 08:13:40;;;;;;;1.75;1.48;;;;;;;;;;6117305;23;20101;-86
2023/06/05 08:16:07;;;;;;;2.50;1.65;;;;;;;;;;6119372;23;20014;-84
2023/06/05 08:18:33;;;;;;;2.22;1.65;;;;;;;;;;6116536;23;20021;-83
2023/06/05 08:21:00;;;;;;;3.15;1.90;;;;;;;;;;6117571;23;20025;-84
2023/06/05 08:23:26;;;;;;;2.53;1.60;;;;;;;;;;6118366;23;20022;-85
2023/06/05 08:25:53;;;;;;;2.67;1.95;;;;;;;;;;6117734;23;20025;-89
2023/06/05 08:28:19;;;;;;;3.45;1.88;;;;;;;;;;6117203;23;20068;-83
2023/06/05 08:30:45;;;;;;;3.60;1.58;;;;;;;;;;6117227;23;20053;-84
2023/06/05 08:33:11;;;;;;;1.70;1.60;;;;;;;;;;6119127;23;20253;-85
2023/06/05 08:35:40;;;;;;;1.70;1.50;;;;;;;;;;6117934;23;20081;-84
2023/06/05 08:38:06;;;;;;;3.13;1.70;;;;;;;;;;6119806;23;20301;-84
2023/06/05 08:40:33;;;;;;;1.60;1.50;;;;;;;;;;6118455;23;20380;-84
2023/06/05 08:43:01;;;;;;;3.03;1.95;;;;;;;;;;6118233;23;20352;-83
2023/06/05 08:45:27;;;;;;;3.35;1.88;;;;;;;;;;6118496;23;20462;-85
2023/06/05 08:47:55;;;;;;;3.10;2.22;;;;;;;;;;6117814;23;20022;-83
2023/06/05 08:50:21;;;;;;;2.50;1.67;;;;;;;;;;6116565;23;20028;-82
2023/06/05 08:52:49;;;;;;;4.05;1.70;;;;;;;;;;6118319;23;20022;-89
2023/06/05 08:55:15;;;;;;;4.10;2.22;;;;;;;;;;6118881;23;20049;-90
2023/06/05 08:57:42;;;;;;;2.33;1.55;;;;;;;;;;6116926;23;20041;-85
2023/06/05 09:00:12;;;;;;;3.58;1.75;;;;;;;;;;6118254;23;20018;-88
2023/06/05 09:02:38;;;;;;;4.07;1.42;;;;;;;;;;6117871;23;20608;-90
2023/06/05 09:05:05;;;;;;;2.40;1.65;;;;;;;;;;6118119;23;20340;-87
2023/06/05 09:07:31;;;;;;;1.42;1.20;;;;;;;;;;6119181;23;20026;-86
2023/06/05 09:09:58;;;;;;;3.10;2.05;;;;;;;;;;6118491;23;20092;-84
2023/06/05 09:12:27;;;;;;;2.72;1.67;;;;;;;;;;6117592;23;20017;-90
2023/06/05 09:14:53;;;;;;;2.90;1.70;;;;;;;;;;6117391;23;20014;-89
2023/06/05 09:17:22;;;;;;;2.55;1.50;;;;;;;;;;6116601;23;20517;-84
2023/06/05 09:19:50;;;;;;;2.35;1.60;;;;;;;;;;6117282;23;20465;-87
2023/06/05 09:22:16;;;;;;;3.50;1.40;;;;;;;;;;6119322;23;20018;-88
2023/06/05 09:24:43;;;;;;;1.73;1.20;;;;;;;;;;6118730;23;20022;-88
2023/06/05 09:27:16;;;;;;;1.67;1.02;;;;;;;;;;6120465;23;20084;-88
2023/06/05 09:29:45;;;;;;;1.50;1.40;;;;;;;;;;6119106;23;20060;-88
2023/06/05 09:32:14;;;;;;;2.45;1.35;;;;;;;;;;6117747;23;20033;-86
2023/06/05 09:34:40;;;;;;;2.42;2.22;;;;;;;;;;6091945;23;20021;-86
2023/06/05 09:37:10;;;;;;;2.03;1.48;;;;;;;;;;6117984;23;20022;-88
2023/06/05 09:39:37;;;;;;;2.67;1.48;;;;;;;;;;6116760;23;20046;-87
2023/06/05 09:42:03;;;;;;;2.33;1.67;;;;;;;;;;6119026;23;20407;-87
2023/06/05 09:44:30;;;;;;;2.20;1.65;;;;;;;;;;6117005;23;20448;-86
2023/06/05 09:47:00;;;;;;;3.30;1.65;;;;;;;;;;6119745;23;20025;-89
2023/06/05 09:49:27;;;;;;;1.83;1.40;;;;;;;;;;6121495;23;20017;-88
2023/06/05 09:51:55;;;;;;;1.58;1.40;;;;;;;;;;6095074;23;20451;-87
2023/06/05 09:54:22;;;;;;;1.50;1.10;;;;;;;;;;6123014;23;20025;-89
2023/06/05 09:56:49;;;;;;;3.08;1.95;;;;;;;;;;6119672;23;20045;-86
2023/06/05 09:59:22;;;;;;;1.90;1.45;;;;;;;;;;6091469;23;20013;-79
2023/06/05 10:01:49;;;;;;;3.13;1.80;;;;;;;;;;6116339;23;20506;-86
2023/06/05 10:04:16;;;;;;;1.95;1.42;;;;;;;;;;6116996;23;20065;-87
2023/06/05 10:06:43;;;;;;;2.55;1.85;;;;;;;;;;6117538;23;20380;-85
2023/06/05 10:09:09;;;;;;;2.15;1.92;;;;;;;;;;6093999;23;20018;-83
2023/06/05 10:11:35;;;;;;;1.95;1.42;;;;;;;;;;6118538;23;20068;-85
2023/06/05 10:14:03;;;;;;;3.15;2.13;;;;;;;;;;6120871;23;20450;-84
2023/06/05 10:16:29;;;;;;;2.75;1.48;;;;;;;;;;6116236;23;20095;-82
2023/06/05 10:18:56;;;;;;;2.22;1.52;;;;;;;;;;6118147;23;20010;-83
2023/06/05 10:21:23;;;;;;;2.60;1.70;;;;;;;;;;6118638;23;20046;-82
2023/06/05 10:23:50;;;;;;;2.05;1.70;;;;;;;;;;6118822;23;20021;-87
2023/06/05 10:26:42;;;;;;;2.25;1.77;;;;;;;;;;6122462;23;20014;-87
2023/06/05 10:29:28;;;;;;;3.13;1.90;;;;;;;;;;6081329;23;20025;-85
2023/06/05 10:32:01;;;;;;;2.10;1.80;;;;;;;;;;6118794;23;20018;-88
2023/06/05 10:34:47;;;;;;;2.35;1.38;;;;;;;;;;6119030;23;20014;-85
2023/06/05 10:37:32;;;;;;;2.25;1.55;;;;;;;;;;6117250;23;20022;-85
2023/06/05 10:39:59;;;;;;;1.60;1.25;;;;;;;;;;6121246;23;20068;-90
2023/06/05 10:42:29;;;;;;;2.80;1.45;;;;;;;;;;6118471;23;20089;-85
2023/06/05 10:44:55;;;;;;;2.38;1.60;;;;;;;;;;6094520;23;20095;-84
2023/06/05 10:47:33;;;;;;;2.85;1.60;;;;;;;;;;6120857;23;20106;-87
2023/06/05 10:50:18;;;;;;;2.42;1.80;;;;;;;;;;6120267;23;20068;-86
2023/06/05 10:52:45;;;;;;;3.47;1.90;;;;;;;;;;6120858;23;20088;-87
2023/06/05 10:55:12;;;;;;;3.35;1.98;;;;;;;;;;6118256;23;20509;-87
2023/06/05 10:57:58;;;;;;;1.58;1.30;;;;;;;;;;6118521;23;20077;-87
2023/06/05 11:00:24;;;;;;;2.75;1.50;;;;;;;;;;6119107;23;20049;-89
2023/06/05 11:02:51;;;;;;;3.17;1.42;;;;;;;;;;6119699;23;20018;-88
2023/06/05 11:05:17;;;;;;;2.72;1.50;;;;;;;;;;6122620;23;20018;-85
2023/06/05 11:07:45;;;;;;;3.20;1.77;;;;;;;;;;6118896;23;20024;-90
2023/06/05 11:10:20;;;;;;;2.10;1.58;;;;;;;;;;6119068;23;20021;-87
2023/06/05 11:12:46;;;;;;;1.92;1.73;;;;;;;;;;6118085;23;20018;-90
2023/06/05 11:15:16;;;;;;;2.20;1.60;;;;;;;;;;6118143;23;20506;-88
2023/06/05 11:17:50;;;;;;;3.03;1.70;;;;;;;;;;6120904;23;20099;-86
2023/06/05 11:20:24;;;;;;;2.42;1.90;;;;;;;;;;6119466;23;20466;-90
2023/06/05 11:22:53;;;;;;;2.97;1.80;;;;;;;;;;6115844;23;20717;-86
2023/06/05 11:25:29;;;;;;;3.72;2.00;;;;;;;;;;6118150;23;20415;-88
2023/06/05 11:28:01;;;;;;;2.50;1.38;;;;;;;;;;6116635;23;20100;-86
2023/06/05 11:30:34;;;;;;;2.83;1.85;;;;;;;;;;6117154;23;20014;-87
2023/06/05 11:33:08;;;;;;;2.08;1.60;;;;;;;;;;6093712;23;20022;-87
2023/06/05 11:35:34;;;;;;;3.58;1.88;;;;;;;;;;6118902;23;20336;-85
2023/06/05 11:38:11;;;;;;;4.32;2.17;;;;;;;;;;6121194;23;20022;-87
2023/06/05 11:40:38;;;;;;;3.40;2.00;;;;;;;;;;6117975;23;20130;-87
2023/06/05 11:43:05;;;;;;;2.75;1.73;;;;;;;;;;6117808;23;20105;-86
2023/06/05 11:45:32;;;;;;;3.33;2.17;;;;;;;;;;6119031;23;20093;-85
2023/06/05 11:48:05;;;;;;;2.47;1.90;;;;;;;;;;6118917;23;20037;-90
2023/06/05 11:50:31;;;;;;;2.08;1.38;;;;;;;;;;6117146;23;20096;-89
2023/06/05 11:53:10;;;;;;;2.03;1.27;;;;;;;;;;6119072;23;20052;-87
2023/06/05 11:55:53;;;;;;;2.33;1.60;;;;;;;;;;6118243;23;20018;-86
2023/06/05 11:58:29;;;;;;;3.05;1.55;;;;;;;;;;6118411;23;20010;-88
2023/06/05 12:01:06;;;;;;;2.28;1.70;;;;;;;;;;6119398;23;20073;-85
2023/06/05 12:03:35;;;;;;;2.03;1.40;;;;;;;;;;6117568;23;20053;-87
2023/06/05 12:06:04;;;;;;;2.08;1.77;;;;;;;;;;6118520;23;20050;-86
2023/06/05 12:08:33;;;;;;;2.50;1.77;;;;;;;;;;6118814;23;20045;-85
2023/06/05 12:10:59;;;;;;;2.00;1.50;;;;;;;;;;6119037;23;20025;-87
2023/06/05 12:13:44;;;;;;;2.85;1.70;;;;;;;;;;6116942;23;20340;-89
2023/06/05 12:16:10;;;;;;;1.75;1.33;;;;;;;;;;6118177;23;20470;-88
2023/06/05 12:18:36;;;;;;;1.05;0.98;;;;;;;;;;6117780;23;20435;-89
2023/06/05 12:21:02;;;;;;;3.70;1.63;;;;;;;;;;6117567;23;20022;-86
2023/06/05 12:23:31;;;;;;;2.42;1.70;;;;;;;;;;6117876;23;20072;-87
2023/06/05 12:26:01;;;;;;;3.33;1.55;;;;;;;;;;6120514;23;20032;-87
2023/06/05 12:28:28;;;;;;;4.18;2.28;;;;;;;;;;6117468;23;20085;-88
2023/06/05 12:30:54;;;;;;;2.70;1.65;;;;;;;;;;6118347;23;20371;-90
2023/06/05 12:33:24;;;;;;;3.00;1.40;;;;;;;;;;6093891;23;20089;-92
2023/06/05 12:36:02;;;;;;;2.95;1.58;;;;;;;;;;6117778;23;20408;-86
2023/06/05 12:38:28;;;;;;;4.68;1.85;;;;;;;;;;6116695;23;20014;-85
2023/06/05 12:40:55;;;;;;;1.85;1.17;;;;;;;;;;6120277;23;20097;-86
2023/06/05 12:43:21;;;;;;;2.33;1.98;;;;;;;;;;6117883;23;20152;-87
2023/06/05 12:45:49;;;;;;;2.15;1.83;;;;;;;;;;6117441;23;20022;-86
2023/06/05 12:48:15;;;;;;;2.50;1.65;;;;;;;;;;6117802;23;20332;-86
2023/06/05 12:50:41;;;;;;;2.35;1.33;;;;;;;;;;6117718;23;20024;-87
2023/06/05 12:53:07;;;;;;;2.88;2.30;;;;;;;;;;6117921;23;20057;-90
2023/06/05 12:55:33;;;;;;;3.08;1.75;;;;;;;;;;6116671;23;20081;-88
2023/06/05 12:57:59;;;;;;;3.17;1.90;;;;;;;;;;6117227;23;20017;-86
2023/06/05 13:00:25;;;;;;;2.63;1.95;;;;;;;;;;6118626;23;20368;-87
2023/06/05 13:02:51;;;;;;;2.42;1.73;;;;;;;;;;6117729;23;20026;-87
2023/06/05 13:05:17;;;;;;;2.42;1.70;;;;;;;;;;6117628;23;20348;-85
2023/06/05 13:07:44;;;;;;;1.83;1.45;;;;;;;;;;6119586;23;20069;-86
2023/06/05 13:10:13;;;;;;;3.97;2.00;;;;;;;;;;6123232;23;20014;-85
2023/06/05 13:12:39;;;;;;;2.90;1.83;;;;;;;;;;6126280;23;20095;-86
2023/06/05 13:15:06;;;;;;;4.28;1.92;;;;;;;;;;6128056;23;20045;-87
2023/06/05 13:17:35;;;;;;;4.55;2.80;;;;;;;;;;6117748;23;20021;-87
2023/06/05 13:20:03;;;;;;;3.42;2.03;;;;;;;;;;6118728;23;20029;-86
2023/06/05 13:22:29;;;;;;;3.03;1.90;;;;;;;;;;6117752;23;20093;-89
2023/06/05 13:24:55;;;;;;;3.45;2.15;;;;;;;;;;6119642;23;20029;-86
2023/06/05 13:27:21;;;;;;;2.85;1.70;;;;;;;;;;6119996;23;20018;-87
2023/06/05 13:29:47;;;;;;;2.28;1.15;;;;;;;;;;6120430;23;20072;-85
2023/06/05 13:32:13;;;;;;;1.60;1.38;;;;;;;;;;6118959;23;20022;-87
2023/06/05 13:34:40;;;;;;;2.70;1.75;;;;;;;;;;6117668;23;20022;-87
2023/06/05 13:37:06;;;;;;;2.25;1.30;;;;;;;;;;6118900;23;20439;-87
2023/06/05 13:39:32;;;;;;;4.13;1.88;;;;;;;;;;6116314;23;20068;-87
2023/06/05 13:41:58;;;;;;;2.15;1.70;;;;;;;;;;6120515;23;20010;-90
2023/06/05 13:44:24;;;;;;;3.58;1.73;;;;;;;;;;6094804;23;20010;-93
2023/06/05 13:46:50;;;;;;;3.22;1.63;;;;;;;;;;6123043;23;20188;-90
2023/06/05 13:49:16;;;;;;;3.22;1.50;;;;;;;;;;6121055;23;20020;-89
2023/06/05 13:51:42;;;;;;;3.20;1.42;;;;;;;;;;6120680;23;20037;-90
2023/06/05 13:54:08;;;;;;;3.63;1.83;;;;;;;;;;6122025;23;20018;-88
2023/06/05 13:56:34;;;;;;;2.70;1.83;;;;;;;;;;6123122;23;20050;-87
2023/06/05 13:59:00;;;;;;;2.42;1.55;;;;;;;;;;6128021;23;20081;-88
2023/06/05 14:01:26;;;;;;;2.10;1.58;;;;;;;;;;6124312;23;20383;-91
2023/06/05 14:03:52;;;;;;;2.67;1.60;;;;;;;;;;6119039;23;20018;-86
2023/06/05 14:06:18;;;;;;;2.72;1.20;;;;;;;;;;6121066;23;20097;-93
2023/06/05 14:08:44;;;;;;;3.50;1.75;;;;;;;;;;6120409;23;20037;-86
2023/06/05 14:11:10;;;;;;;3.20;1.83;;;;;;;;;;6126376;23;20018;-89
2023/06/05 14:13:36;;;;;;;2.53;1.38;;;;;;;;;;6124992;23;20049;-93
2023/06/05 14:16:03;;;;;;;4.55;1.73;;;;;;;;;;6123099;23;20020;-92
2023/06/05 14:18:29;;;;;;;4.32;1.80;;;;;;;;;;6124408;23;20072;-90
2023/06/05 14:20:55;;;;;;;2.92;2.28;;;;;;;;;;6123608;23;20014;-86
2023/06/05 14:23:23;;;;;;;3.28;1.80;;;;;;;;;;6116741;23;20062;-88
2023/06/05 14:25:52;;;;;;;1.80;1.52;;;;;;;;;;6120052;23;20032;-86
2023/06/05 14:28:19;;;;;;;2.03;1.40;;;;;;;;;;6118308;23;20022;-88
2023/06/05 14:30:45;;;;;;;2.05;1.83;;;;;;;;;;6118082;23;20010;-85
2023/06/05 14:33:11;;;;;;;1.67;1.40;;;;;;;;;;6118091;23;20022;-86
2023/06/05 14:35:37;;;;;;;2.80;1.65;;;;;;;;;;6094851;23;20022;-89
2023/06/05 14:38:03;;;;;;;2.03;1.50;;;;;;;;;;6121636;23;20383;-87
2023/06/05 14:40:31;;;;;;;2.28;1.50;;;;;;;;;;6119000;23;20014;-88
2023/06/05 14:42:57;;;;;;;3.30;1.98;;;;;;;;;;6094456;23;20014;-85
2023/06/05 14:45:23;;;;;;;3.55;2.22;;;;;;;;;;6119612;23;20329;-89